Airfield :
LOGIN :

Register | Disclaimer

   EN    FR    IT 

 










Legend :    VFR   Marginal VFR   IFR   Intensive IFR   Very Intensive IFR
Visi :
Ceiling :
>= 8 km
>= 3000ft
5 to 8 km
1000 to 3000 ft
1500m to 5 km
500 to 1000 ft
800 to 1500m
200 to 500 ft
< 800m
< 200 ft
Symbols :   Thunderstorms  Fog  Heavy snow  Heavy precipitations  Wind > 20 kt
SIGMETs :     Misc.  Thunderstorms  Icing  Turbulence  Mountain Waves  Volcanic Ashes







- Airport Elevation : 326 ft
- IATA code : LCG
- Download approach charts


LECO - A Coruna

CURRENT METAR :
  • 181600Z 03008KT 340V070 CAVOK 26/14 Q1019 NOSIG

EXPIRED METARs :
  • 181530Z 03008KT 350V070 CAVOK 26/15 Q1019 NOSIG
  • 181500Z 36007KT 300V060 CAVOK 27/14 Q1020 NOSIG
  • 181430Z 03007KT 330V070 CAVOK 27/15 Q1020 NOSIG
  • 181400Z 04008KT 340V070 CAVOK 27/13 Q1020 NOSIG
  • 181330Z 03008KT 330V070 CAVOK 27/13 Q1020 NOSIG

TAF TAF LECO
Valid from the 18 at 15:00 until the 19 at 15:00 UTC


181400Z 1815/1915 03010KT CAVOK TX29/1914Z TN15/1906Z
BECMG 1818/1822 VRB03KT
BECMG 1910/1914 03010KT
No reported NOTAMs for that airfield.
1 SIGMET reported for the Madrid FIR (LECM) :
 
Embedded thunderstorms
LECM SIGMET 4 VALID 181600/181800 LEVA
LECM MADRID FIR/UIR EMBD TS FCST E OF LINE N4020 W00230 - N3703 W00342 TOP FL420 STNR NC=



MET'MAP, your aeronautical weather chart ! - Copyright ORBIFLY December 2007 - Disclaimer

ORBIFLY MET'MAP TEAM :

Programming & Development : Alexandra Zaïnal
Concept & Development : Baudouin d'Aumeries
Co-Development & Prog : Marc-Olivier Méhu
Technical & hardware support : Manuel Goepfert

Contact : metmap@orbifly.com




SOURCES & CREDITS :

   NOAA